METAR Data
IDs: Format: Raw Decoded Include TAF

Data at: 2003 UTC 13 Nov 2019

METAR for:KVTI (Vinton/Veterans Mem, IA, US)
Text:KVTI 131955Z AUTO 20009KT 10SM SCT045 M01/M07 A2998 RMK AO2 T10071067
Temperature: -0.7°C ( 31°F)
Dewpoint: -6.7°C ( 20°F) [RH = 64%]
Pressure (altimeter):29.98 inches Hg (1015.3 mb)
Winds:from the SSW (200 degrees) at 10 MPH (9 knots; 4.6 m/s)
Visibility:10 or more sm (16+ km)
Ceiling:at least 12,000 feet AGL
Clouds: scattered clouds at 4500 feet AGL
QC Flag:automated observation with no human augmentation